Terminal Aerodrome Forecast
Issued by NWS

Home | Current Version | Previous Version | Graphics & Text | Print | Product List | Glossary On
Versions: 1 2 3 4 5 6 7 8 9 10 11 12 13 14 15 16 17
000
FTUS43 KUNR 231700
TAFGCC
TAF
KGCC 231720Z 2318/2418 34010KT P6SM BKN100
     FM240100 35007KT P6SM BKN060
      TEMPO 2401/2405 5SM -SHRA OVC040
     FM240900 24007KT P6SM SCT050 OVC100=

USA.gov is the U.S. government's official web portal to all federal, state and local government web resources and services.